createdAt,value
2023-04-18T00:00:49.459Z,3.00
2023-04-18T00:03:18.434Z,4.80
2023-04-18T00:05:48.321Z,3.50
2023-04-18T00:08:17.645Z,3.88
2023-04-18T00:10:46.645Z,4.28
2023-04-18T00:13:18.466Z,4.85
2023-04-18T00:15:48.796Z,4.57
2023-04-18T00:18:17.591Z,4.70
2023-04-18T00:20:47.050Z,4.35
2023-04-18T00:23:16.428Z,7.47
2023-04-18T00:25:45.566Z,4.13
2023-04-18T00:28:14.414Z,6.28
2023-04-18T00:30:43.346Z,4.00
2023-04-18T00:33:13.650Z,5.35
2023-04-18T00:35:42.496Z,6.00
2023-04-18T00:38:11.517Z,7.47
2023-04-18T00:40:42.576Z,4.25
2023-04-18T00:43:14.762Z,3.95
2023-04-18T00:45:43.783Z,4.90
2023-04-18T00:48:14.229Z,4.18
2023-04-18T00:50:43.120Z,4.45
2023-04-18T00:53:12.218Z,4.00
2023-04-18T00:55:41.588Z,6.18
2023-04-18T00:58:10.603Z,5.40
2023-04-18T01:00:39.470Z,7.38
2023-04-18T01:03:10.843Z,4.72
2023-04-18T01:05:41.677Z,4.50
2023-04-18T01:08:10.837Z,3.78
2023-04-18T01:10:40.376Z,4.68
2023-04-18T01:13:17.528Z,5.57
2023-04-18T01:15:48.207Z,5.07
2023-04-18T01:18:19.258Z,5.78
2023-04-18T01:20:51.222Z,5.53
2023-04-18T01:23:22.464Z,6.13
2023-04-18T01:25:52.843Z,5.60
2023-04-18T01:28:22.983Z,9.30
2023-04-18T01:30:52.095Z,6.25
2023-04-18T01:33:21.099Z,8.70
2023-04-18T01:35:50.131Z,6.75
2023-04-18T01:38:18.928Z,7.97
2023-04-18T01:40:48.036Z,7.82
2023-04-18T01:43:18.566Z,11.98
2023-04-18T01:45:47.479Z,10.35
2023-04-18T01:48:16.333Z,9.18
2023-04-18T01:50:45.239Z,8.30
2023-04-18T01:53:14.084Z,8.60
2023-04-18T01:55:46.052Z,8.40
2023-04-18T01:58:15.812Z,9.00
2023-04-18T02:00:46.079Z,7.88
2023-04-18T02:03:15.031Z,7.35
2023-04-18T02:05:44.024Z,7.90
2023-04-18T02:08:12.878Z,7.20
2023-04-18T02:10:41.872Z,7.45
2023-04-18T02:13:11.414Z,10.27
2023-04-18T02:15:40.343Z,9.82
2023-04-18T02:18:11.647Z,8.85
2023-04-18T02:20:41.899Z,8.73
2023-04-18T02:23:10.929Z,8.45
2023-04-18T02:25:39.767Z,7.07
2023-04-18T02:28:08.634Z,6.97
2023-04-18T02:30:37.516Z,6.90
2023-04-18T02:33:06.555Z,7.35
2023-04-18T02:35:38.406Z,8.63
2023-04-18T02:38:07.355Z,6.13
2023-04-18T02:40:36.281Z,5.50
2023-04-18T02:43:05.168Z,6.13
2023-04-18T02:45:34.078Z,6.10
2023-04-18T02:48:03.818Z,7.00
2023-04-18T02:50:35.536Z,7.22
2023-04-18T02:53:06.138Z,17.48
2023-04-18T02:55:48.489Z,15.38
2023-04-18T02:58:18.582Z,10.60
2023-04-18T03:01:17.077Z,6.68
2023-04-18T03:03:59.641Z,10.23
2023-04-18T03:06:38.701Z,9.07
2023-04-18T03:09:09.631Z,11.32
2023-04-18T03:11:44.165Z,10.70
2023-04-18T03:14:13.910Z,9.07
2023-04-18T03:16:51.778Z,15.65
2023-04-18T03:21:56.158Z,10.48
2023-04-18T03:24:26.454Z,10.68
2023-04-18T03:26:59.786Z,10.20
2023-04-18T03:29:29.029Z,20.05
2023-04-18T03:31:58.306Z,26.80
2023-04-18T03:34:27.299Z,26.38
2023-04-18T03:36:56.952Z,24.67
2023-04-18T03:39:28.489Z,21.77
2023-04-18T03:41:58.139Z,17.77
2023-04-18T03:44:27.032Z,14.95
2023-04-18T03:46:56.062Z,10.75
2023-04-18T03:49:27.179Z,13.35
2023-04-18T03:51:56.235Z,10.88
2023-04-18T03:54:26.377Z,13.40
2023-04-18T03:56:57.671Z,10.48
2023-04-18T03:59:26.828Z,10.68
2023-04-18T04:01:57.058Z,13.60
2023-04-18T04:04:26.336Z,8.40
2023-04-18T04:06:55.936Z,11.27
2023-04-18T04:09:24.885Z,12.32
2023-04-18T04:11:53.831Z,13.43
2023-04-18T04:14:24.733Z,10.00
2023-04-18T04:16:55.463Z,10.48
2023-04-18T04:19:24.933Z,12.88
2023-04-18T04:22:07.556Z,22.42
2023-04-18T04:24:38.482Z,23.92
2023-04-18T04:27:08.366Z,17.98
2023-04-18T04:29:41.355Z,18.17
2023-04-18T04:32:10.368Z,14.32
2023-04-18T04:34:41.502Z,13.30
2023-04-18T04:37:14.125Z,15.40
2023-04-18T04:39:56.616Z,17.33
2023-04-18T04:43:00.560Z,11.50
2023-04-18T04:45:39.614Z,11.23
2023-04-18T04:48:08.938Z,14.93
2023-04-18T04:50:39.881Z,12.00
2023-04-18T04:53:08.787Z,7.68
2023-04-18T04:55:38.624Z,8.45
2023-04-18T04:58:07.648Z,7.03
2023-04-18T05:00:48.292Z,8.70
2023-04-18T05:03:17.367Z,9.02
2023-04-18T05:05:46.817Z,10.68
2023-04-18T05:08:15.759Z,8.23
2023-04-18T05:10:45.973Z,10.77
2023-04-18T05:13:14.843Z,9.15
2023-04-18T05:15:43.714Z,7.03
2023-04-18T05:18:14.492Z,9.45
2023-04-18T05:20:43.346Z,9.32
2023-04-18T05:23:12.201Z,9.75
2023-04-18T05:25:41.049Z,8.88
2023-04-18T05:28:09.925Z,9.80
2023-04-18T05:30:38.851Z,11.88
2023-04-18T05:33:07.860Z,12.35
2023-04-18T05:35:38.447Z,13.63
2023-04-18T05:38:07.265Z,14.60
2023-04-18T05:40:36.151Z,11.20
2023-04-18T05:43:04.993Z,9.52
2023-04-18T05:45:33.855Z,12.77
2023-04-18T05:48:03.327Z,9.18
2023-04-18T05:50:32.133Z,13.60
2023-04-18T05:53:02.612Z,13.13
2023-04-18T05:55:31.449Z,10.15
2023-04-18T05:58:00.355Z,10.07
2023-04-18T06:00:29.695Z,7.38
2023-04-18T06:02:58.600Z,9.50
2023-04-18T06:05:28.063Z,10.05
2023-04-18T06:07:57.191Z,8.50
2023-04-18T06:10:27.482Z,7.00
2023-04-18T06:12:56.289Z,7.57
2023-04-18T06:15:25.144Z,14.40
2023-04-18T06:17:53.988Z,8.25
2023-04-18T06:20:23.220Z,10.30
2023-04-18T06:22:52.064Z,7.22
2023-04-18T06:25:21.531Z,5.65
2023-04-18T06:27:51.754Z,10.45
2023-04-18T06:30:22.110Z,9.07
2023-04-18T06:32:51.147Z,8.80
2023-04-18T06:35:20.107Z,7.32
2023-04-18T06:37:49.020Z,6.07
2023-04-18T06:40:18.139Z,8.82
2023-04-18T06:42:46.993Z,6.75
2023-04-18T06:45:17.396Z,5.90
2023-04-18T06:47:47.714Z,9.68
2023-04-18T06:50:16.694Z,5.28
2023-04-18T06:52:45.786Z,6.82
2023-04-18T06:55:15.199Z,6.93
2023-04-18T06:57:44.420Z,11.27
2023-04-18T07:00:14.153Z,6.28
2023-04-18T07:02:44.569Z,4.60
2023-04-18T07:05:13.599Z,6.75
2023-04-18T07:07:42.512Z,6.72
2023-04-18T07:10:12.596Z,5.30
2023-04-18T07:12:41.450Z,4.93
2023-04-18T07:15:11.573Z,9.90
2023-04-18T07:17:40.405Z,5.18
2023-04-18T07:20:13.070Z,7.25
2023-04-18T07:22:43.316Z,5.93
2023-04-18T07:25:12.165Z,6.32
2023-04-18T07:27:41.164Z,7.72
2023-04-18T07:30:11.301Z,5.22
2023-04-18T07:32:40.268Z,5.97
2023-04-18T07:35:11.579Z,4.93
2023-04-18T07:37:40.688Z,14.05
2023-04-18T07:40:10.897Z,4.60
2023-04-18T07:42:39.736Z,5.43
2023-04-18T07:45:09.052Z,5.25
2023-04-18T07:47:37.930Z,5.07
2023-04-18T07:50:08.553Z,5.47
2023-04-18T07:52:39.520Z,8.23
2023-04-18T07:55:09.467Z,5.10
2023-04-18T07:57:38.472Z,4.00
2023-04-18T08:00:09.350Z,6.53
2023-04-18T08:02:44.259Z,54.97
2023-04-18T08:05:13.343Z,33.53
2023-04-18T08:07:43.729Z,11.88
2023-04-18T08:10:12.772Z,13.35
2023-04-18T08:12:41.863Z,9.40
2023-04-18T08:15:11.405Z,30.35
2023-04-18T08:17:42.742Z,10.32
2023-04-18T08:20:13.091Z,7.45
2023-04-18T08:22:57.660Z,6.05
2023-04-18T08:25:33.254Z,18.98
2023-04-18T08:28:02.091Z,4.68
2023-04-18T08:30:31.266Z,5.88
2023-04-18T08:33:00.654Z,6.10
2023-04-18T08:35:30.135Z,5.05
2023-04-18T08:38:00.657Z,6.57
2023-04-18T08:40:30.445Z,5.13
2023-04-18T08:43:04.956Z,6.82
2023-04-18T08:45:34.458Z,6.22
2023-04-18T08:48:04.100Z,3.38
2023-04-18T08:50:33.402Z,5.75
2023-04-18T08:53:03.741Z,6.22
2023-04-18T08:55:33.692Z,4.63
2023-04-18T08:58:03.410Z,4.13
2023-04-18T09:00:32.777Z,4.57
2023-04-18T09:03:03.108Z,3.63
2023-04-18T09:05:32.066Z,4.40
2023-04-18T09:08:21.512Z,4.07
2023-04-18T09:10:51.849Z,11.07
2023-04-18T09:13:39.491Z,4.65
2023-04-18T09:16:08.451Z,4.57
2023-04-18T09:18:38.369Z,3.38
2023-04-18T09:21:19.504Z,2.45
2023-04-18T09:23:50.392Z,3.70
2023-04-18T09:26:34.904Z,2.50
2023-04-18T09:29:03.834Z,3.25
2023-04-18T09:31:32.848Z,18.70
2023-04-18T09:34:03.088Z,1.48
2023-04-18T09:36:32.410Z,0.80
2023-04-18T09:39:02.080Z,1.02
2023-04-18T09:41:32.808Z,0.93
2023-04-18T09:44:14.450Z,0.80
2023-04-18T09:46:47.106Z,1.55
2023-04-18T09:49:17.429Z,2.47
2023-04-18T09:51:46.899Z,0.68
2023-04-18T09:54:17.049Z,3.45
2023-04-18T09:56:50.352Z,1.23
2023-04-18T09:59:34.398Z,1.23
2023-04-18T10:02:08.247Z,2.80
2023-04-18T10:04:37.568Z,6.15
2023-04-18T10:07:07.132Z,2.92
2023-04-18T10:09:36.820Z,1.23
2023-04-18T10:12:07.422Z,1.60
2023-04-18T10:14:38.453Z,0.68
2023-04-18T10:17:07.468Z,0.68
2023-04-18T10:19:36.469Z,0.30
2023-04-18T10:22:05.394Z,1.15
2023-04-18T10:24:53.108Z,1.35
2023-04-18T10:27:58.176Z,0.88
2023-04-18T10:30:53.523Z,0.98
2023-04-18T10:33:31.962Z,1.33
2023-04-18T10:36:06.253Z,0.80
2023-04-18T10:38:35.675Z,1.10
2023-04-18T10:41:22.418Z,1.10
2023-04-18T10:44:24.219Z,2.90
2023-04-18T10:47:22.606Z,2.35
2023-04-18T10:49:57.506Z,1.35
2023-04-18T10:55:12.840Z,44.00
2023-04-18T10:57:43.540Z,3.33
2023-04-18T11:00:16.142Z,0.93
2023-04-18T11:02:53.793Z,2.92
2023-04-18T11:05:25.237Z,0.50
2023-04-18T11:07:54.676Z,2.40
2023-04-18T11:10:25.639Z,2.90
2023-04-18T11:12:55.585Z,3.08
2023-04-18T11:15:28.598Z,3.10
2023-04-18T11:18:00.897Z,4.00
2023-04-18T11:20:30.419Z,3.45
2023-04-18T11:23:00.579Z,7.82
2023-04-18T11:25:32.004Z,4.47
2023-04-18T11:28:02.488Z,4.45
2023-04-18T11:30:40.055Z,13.77
2023-04-18T11:33:09.433Z,4.43
2023-04-18T11:35:39.773Z,4.32
2023-04-18T11:38:10.320Z,2.25
2023-04-18T11:40:39.310Z,3.72
2023-04-18T11:43:08.712Z,5.00
2023-04-18T11:45:39.074Z,4.47
2023-04-18T11:48:07.996Z,2.83
2023-04-18T11:50:38.260Z,2.15
2023-04-18T11:53:07.063Z,0.73
2023-04-18T11:55:35.848Z,3.33
2023-04-18T11:58:04.754Z,1.58
2023-04-18T12:00:35.607Z,1.15
2023-04-18T12:03:07.858Z,3.38
2023-04-18T12:05:39.432Z,3.33
2023-04-18T12:08:11.400Z,3.95
2023-04-18T12:10:47.457Z,0.70
2023-04-18T12:13:16.341Z,2.42
2023-04-18T12:15:46.791Z,3.10
2023-04-18T12:18:19.753Z,2.17
2023-04-18T12:20:51.570Z,2.00
2023-04-18T12:23:35.422Z,2.60
2023-04-18T12:26:05.892Z,6.93
2023-04-18T12:28:37.220Z,10.75
2023-04-18T12:31:07.469Z,7.32
2023-04-18T12:33:37.879Z,7.45
2023-04-18T12:36:08.561Z,6.50
2023-04-18T12:38:37.420Z,10.43
2023-04-18T12:41:06.618Z,6.50
2023-04-18T12:43:35.431Z,6.20
2023-04-18T12:46:04.287Z,7.80
2023-04-18T12:48:33.118Z,4.10
2023-04-18T12:51:03.356Z,0.95
2023-04-18T12:53:32.151Z,1.35
2023-04-18T12:56:01.036Z,4.95
2023-04-18T12:58:29.979Z,4.22
2023-04-18T13:00:59.107Z,5.28
2023-04-18T13:03:28.487Z,2.45
2023-04-18T13:05:57.576Z,4.90
2023-04-18T13:08:27.827Z,3.97
2023-04-18T13:10:56.766Z,3.72
2023-04-18T13:13:25.741Z,3.42
2023-04-18T13:15:54.673Z,1.80
2023-04-18T13:18:23.481Z,3.50
2023-04-18T13:20:52.664Z,3.40
2023-04-18T13:23:21.509Z,5.03
2023-04-18T13:25:51.911Z,4.25
2023-04-18T13:28:20.841Z,6.47
2023-04-18T13:30:49.620Z,1.45
2023-04-18T13:33:18.641Z,4.45
2023-04-18T13:35:47.484Z,7.03
2023-04-18T13:38:16.406Z,4.95
2023-04-18T13:40:45.500Z,9.65
2023-04-18T13:43:15.717Z,4.03
2023-04-18T13:45:44.502Z,6.00
2023-04-18T13:48:15.708Z,2.67
2023-04-18T13:50:45.111Z,5.20
2023-04-18T13:53:16.273Z,1.33
2023-04-18T13:55:45.266Z,5.10
2023-04-18T13:58:15.778Z,3.00
2023-04-18T14:00:44.606Z,2.30
2023-04-18T14:03:13.519Z,1.13
2023-04-18T14:05:42.473Z,4.10
2023-04-18T14:08:11.414Z,1.25
2023-04-18T14:10:40.459Z,1.45
2023-04-18T14:13:09.378Z,1.85
2023-04-18T14:15:39.666Z,2.85
2023-04-18T14:18:08.673Z,1.60
2023-04-18T14:20:37.678Z,2.50
2023-04-18T14:23:06.501Z,1.00
2023-04-18T14:25:35.350Z,1.98
2023-04-18T14:28:09.509Z,0.68
2023-04-18T14:30:41.288Z,0.95
2023-04-18T14:33:10.497Z,1.77
2023-04-18T14:35:40.104Z,1.92
2023-04-18T14:38:08.921Z,4.28
2023-04-18T14:40:37.945Z,1.92
2023-04-18T14:43:06.856Z,1.42
2023-04-18T14:45:36.000Z,1.67
2023-04-18T14:48:08.809Z,3.50
2023-04-18T14:50:39.314Z,7.95
2023-04-18T14:53:08.925Z,2.97
2023-04-18T14:55:37.971Z,2.10
2023-04-18T14:58:06.853Z,2.80
2023-04-18T15:00:35.720Z,4.40
2023-04-18T15:03:07.163Z,2.90
2023-04-18T15:05:42.813Z,2.83
2023-04-18T15:08:12.008Z,2.53
2023-04-18T15:10:42.388Z,0.98
2023-04-18T15:13:11.594Z,1.25
2023-04-18T15:15:41.071Z,0.73
2023-04-18T15:18:13.816Z,0.98
2023-04-18T15:20:42.692Z,3.92
2023-04-18T15:23:13.776Z,1.52
2023-04-18T15:25:43.233Z,4.65
2023-04-18T15:28:13.399Z,1.35
2023-04-18T15:30:42.247Z,2.75
2023-04-18T15:33:13.623Z,5.63
2023-04-18T15:35:42.524Z,8.93
2023-04-18T15:38:11.690Z,7.40
2023-04-18T15:40:40.916Z,3.35
2023-04-18T15:43:09.730Z,3.60
2023-04-18T15:45:38.582Z,3.25
2023-04-18T15:48:07.893Z,2.53
2023-04-18T15:50:38.213Z,3.53
2023-04-18T15:53:07.087Z,5.47
2023-04-18T15:55:35.965Z,2.22
2023-04-18T15:58:05.134Z,2.28
2023-04-18T16:00:33.989Z,1.35
2023-04-18T16:03:02.873Z,3.42
2023-04-18T16:05:31.943Z,5.57
2023-04-18T16:08:02.560Z,2.67
2023-04-18T16:10:31.469Z,1.70
2023-04-18T16:13:00.624Z,2.40
2023-04-18T16:15:31.496Z,1.60
2023-04-18T16:18:00.356Z,2.30
2023-04-18T16:20:29.671Z,2.45
2023-04-18T16:22:58.842Z,2.45
2023-04-18T16:25:29.184Z,4.25
2023-04-18T16:27:58.064Z,5.47
2023-04-18T16:30:26.886Z,4.43
2023-04-18T16:32:55.790Z,4.25
2023-04-18T16:35:24.912Z,4.00
2023-04-18T16:37:53.882Z,3.38
2023-04-18T16:40:22.728Z,5.95
2023-04-18T16:42:52.905Z,2.42
2023-04-18T16:45:22.239Z,1.35
2023-04-18T16:47:51.345Z,2.58
2023-04-18T16:50:20.376Z,2.15
2023-04-18T16:52:49.404Z,2.70
2023-04-18T16:55:18.254Z,1.48
2023-04-18T16:57:47.097Z,4.60
2023-04-18T17:00:17.862Z,4.18
2023-04-18T17:02:47.306Z,2.63
2023-04-18T17:05:16.293Z,3.35
2023-04-18T17:07:45.743Z,2.80
2023-04-18T17:10:14.665Z,8.48
2023-04-18T17:12:43.454Z,4.18
2023-04-18T17:15:12.516Z,2.08
2023-04-18T17:17:42.767Z,3.35
2023-04-18T17:20:12.563Z,1.58
2023-04-18T17:22:41.451Z,2.95
2023-04-18T17:25:10.861Z,3.10
2023-04-18T17:27:41.364Z,3.28
2023-04-18T17:30:11.257Z,2.67
2023-04-18T17:32:45.739Z,1.08
2023-04-18T17:35:16.409Z,1.92
2023-04-18T17:37:45.216Z,0.65
2023-04-18T17:40:14.389Z,2.10
2023-04-18T17:42:43.296Z,3.20
2023-04-18T17:45:12.233Z,2.92
2023-04-18T17:47:41.350Z,2.03
2023-04-18T17:50:10.790Z,1.77
2023-04-18T17:52:41.039Z,2.35
2023-04-18T17:55:10.404Z,1.08
2023-04-18T17:57:39.268Z,1.10
2023-04-18T18:00:11.804Z,0.80
2023-04-18T18:02:43.365Z,3.03
2023-04-18T18:05:14.414Z,3.97
2023-04-18T18:07:47.566Z,1.75
2023-04-18T18:10:20.108Z,3.08
2023-04-18T18:12:49.129Z,3.25
2023-04-18T18:15:19.070Z,1.77
2023-04-18T18:17:49.807Z,3.58
2023-04-18T18:20:19.116Z,1.80
2023-04-18T18:22:49.426Z,1.95
2023-04-18T18:25:18.244Z,0.70
2023-04-18T18:27:47.084Z,1.00
2023-04-18T18:30:16.325Z,1.58
2023-04-18T18:32:45.194Z,0.70
2023-04-18T18:35:14.185Z,1.35
2023-04-18T18:37:43.040Z,2.17
2023-04-18T18:40:13.898Z,1.02
2023-04-18T18:42:43.026Z,2.90
2023-04-18T18:45:12.066Z,2.22
2023-04-18T18:47:41.154Z,3.53
2023-04-18T18:50:11.046Z,0.65
2023-04-18T18:52:40.882Z,1.73
2023-04-18T18:55:11.076Z,5.60
2023-04-18T18:57:41.307Z,2.03
2023-04-18T19:00:12.220Z,2.67
2023-04-18T19:02:41.394Z,3.40
2023-04-18T19:05:12.628Z,1.80
2023-04-18T19:07:42.904Z,1.60
2023-04-18T19:10:11.978Z,5.85
2023-04-18T19:12:43.043Z,2.95
2023-04-18T19:15:13.018Z,3.10
2023-04-18T19:17:41.948Z,0.88
2023-04-18T19:20:11.200Z,2.47
2023-04-18T19:22:40.166Z,3.60
2023-04-18T19:25:10.589Z,4.75
2023-04-18T19:27:39.449Z,3.05
2023-04-18T19:30:11.377Z,4.30
2023-04-18T19:32:40.315Z,2.17
2023-04-18T19:35:13.545Z,1.92
2023-04-18T19:37:42.647Z,1.92
2023-04-18T19:40:12.248Z,1.50
2023-04-18T19:42:41.150Z,0.95
2023-04-18T19:45:15.174Z,1.17
2023-04-18T19:47:45.141Z,2.58
2023-04-18T19:50:14.609Z,4.35
2023-04-18T19:52:43.452Z,1.95
2023-04-18T19:55:12.346Z,3.75
2023-04-18T19:57:42.378Z,1.42
2023-04-18T20:00:14.248Z,4.57
2023-04-18T20:02:44.216Z,2.70
2023-04-18T20:05:13.406Z,1.65
2023-04-18T20:07:42.701Z,2.65
2023-04-18T20:10:11.933Z,5.22
2023-04-18T20:12:40.787Z,1.80
2023-04-18T20:15:10.373Z,1.80
2023-04-18T20:17:40.804Z,5.88
2023-04-18T20:20:11.284Z,3.03
2023-04-18T20:22:41.877Z,0.40
2023-04-18T20:25:10.820Z,0.43
2023-04-18T20:27:39.711Z,2.33
2023-04-18T20:30:09.699Z,3.10
2023-04-18T20:32:38.516Z,6.70
2023-04-18T20:35:09.710Z,6.93
2023-04-18T20:37:39.092Z,5.95
2023-04-18T20:40:10.050Z,4.07
2023-04-18T20:42:39.089Z,6.63
2023-04-18T20:45:11.009Z,4.85
2023-04-18T20:47:41.260Z,3.38
2023-04-18T20:50:14.055Z,13.85
2023-04-18T20:52:43.646Z,4.28
2023-04-18T20:55:12.709Z,4.15
2023-04-18T20:57:41.549Z,5.40
2023-04-18T21:03:04.454Z,2.10
2023-04-18T21:05:34.942Z,3.08
2023-04-18T21:08:03.756Z,3.95
2023-04-18T21:10:32.667Z,2.25
2023-04-18T21:13:02.035Z,2.15
2023-04-18T21:15:30.903Z,6.57
2023-04-18T21:17:59.890Z,10.52
2023-04-18T21:20:29.722Z,7.47
2023-04-18T21:22:59.968Z,5.93
2023-04-18T21:25:28.839Z,6.25
2023-04-18T21:27:58.194Z,5.90
2023-04-18T21:30:27.124Z,0.43
2023-04-18T21:32:56.079Z,1.23
2023-04-18T21:35:25.174Z,8.25
2023-04-18T21:37:54.102Z,7.25
2023-04-18T21:40:24.485Z,7.22
2023-04-18T21:42:53.438Z,5.00
2023-04-18T21:45:22.506Z,4.57
2023-04-18T21:47:52.489Z,7.28
2023-04-18T21:50:21.525Z,7.68
2023-04-18T21:52:50.364Z,8.48
2023-04-18T21:55:19.246Z,9.73
2023-04-18T21:57:49.460Z,13.02
2023-04-18T22:00:19.070Z,6.82
2023-04-18T22:02:48.173Z,5.57
2023-04-18T22:05:17.911Z,5.78
2023-04-18T22:07:57.452Z,3.28
2023-04-18T22:10:27.358Z,3.80
2023-04-18T22:12:58.441Z,4.78
2023-04-18T22:15:28.008Z,2.47
2023-04-18T22:17:57.838Z,5.50
2023-04-18T22:20:27.178Z,5.13
2023-04-18T22:22:56.036Z,6.68
2023-04-18T22:25:24.869Z,4.57
2023-04-18T22:27:53.711Z,5.25
2023-04-18T22:30:23.873Z,3.22
2023-04-18T22:32:52.742Z,3.00
2023-04-18T22:35:21.766Z,4.00
2023-04-18T22:37:50.662Z,4.88
2023-04-18T22:40:19.687Z,3.67
2023-04-18T22:42:48.505Z,5.68
2023-04-18T22:45:17.281Z,4.93
2023-04-18T22:47:47.669Z,5.63
2023-04-18T22:50:16.600Z,3.08
2023-04-18T22:52:45.891Z,3.92
2023-04-18T22:55:16.535Z,3.38
2023-04-18T22:57:45.356Z,3.45
2023-04-18T23:00:15.269Z,2.65
2023-04-18T23:02:44.241Z,2.15
2023-04-18T23:05:16.092Z,2.58
2023-04-18T23:07:44.979Z,7.38
2023-04-18T23:10:13.811Z,5.30
2023-04-18T23:12:42.646Z,6.70
2023-04-18T23:15:12.102Z,4.07
2023-04-18T23:17:41.048Z,0.63
2023-04-18T23:20:10.955Z,2.47
2023-04-18T23:22:41.196Z,2.20
2023-04-18T23:25:10.412Z,2.13
2023-04-18T23:27:39.261Z,1.90
2023-04-18T23:30:09.438Z,4.20
2023-04-18T23:32:38.329Z,1.77
2023-04-18T23:35:08.059Z,0.22
2023-04-18T23:37:36.922Z,0.30
2023-04-18T23:40:09.138Z,0.50
2023-04-18T23:42:38.349Z,2.13
2023-04-18T23:45:07.901Z,3.10
2023-04-18T23:47:37.234Z,2.20
2023-04-18T23:50:06.912Z,1.50
2023-04-18T23:52:35.763Z,1.38
2023-04-18T23:55:04.830Z,3.40
2023-04-18T23:57:35.684Z,0.43
